Time;durP1;ratioP1;P1;durP2;ratioP2;P2;SDS_P1;SDS_P2;PMS_P1;PMS_P2;Temp;Humidity;BMP_temperature;BMP_pressure;BME280_temperature;BME280_humidity;BME280_pressure;Samples;Min_cycle;Max_cycle;Signal;HPM_P1;HPM_P2
2022/02/16 00:00:32;;;;;;;9.90;5.70;;;;;;;3.80;84.09;97620.25;6206401;28;20238;-73
2022/02/16 00:03:35;;;;;;;6.47;5.77;;;;;;;3.80;84.56;97619.41;6205243;28;20300;-72
2022/02/16 00:06:40;;;;;;;8.30;5.97;;;;;;;3.79;84.07;97629.03;6197888;28;20830;-72
2022/02/16 00:09:42;;;;;;;6.90;5.90;;;;;;;3.77;84.46;97627.44;6198106;28;20369;-73
2022/02/16 00:12:47;;;;;;;6.60;5.90;;;;;;;3.77;84.08;97628.28;6198026;28;20238;-72
2022/02/16 00:15:49;;;;;;;8.13;6.23;;;;;;;3.77;84.43;97624.81;6206163;28;20250;-72
2022/02/16 00:18:51;;;;;;;9.23;6.83;;;;;;;3.77;84.14;97636.09;6205361;28;20266;-72
2022/02/16 00:21:53;;;;;;;10.13;7.17;;;;;;;3.79;84.95;97631.66;6205962;28;20240;-72
2022/02/16 00:24:55;;;;;;;9.97;7.17;;;;;;;3.80;84.64;97635.91;6205831;28;20238;-72
2022/02/16 00:27:57;;;;;;;8.17;6.77;;;;;;;3.79;84.60;97630.81;6205815;28;20241;-72
2022/02/16 00:31:01;;;;;;;9.93;7.50;;;;;;;3.77;84.39;97628.28;6181232;28;20237;-73
2022/02/16 00:34:04;;;;;;;8.57;6.33;;;;;;;3.73;84.52;97645.00;6210459;28;20628;-73
2022/02/16 00:37:06;;;;;;;10.13;7.80;;;;;;;3.70;85.39;97643.41;6196185;28;20257;-72
2022/02/16 00:40:09;;;;;;;11.43;8.07;;;;;;;3.77;84.96;97636.09;6189589;28;20242;-73
2022/02/16 00:43:11;;;;;;;9.77;8.33;;;;;;;3.77;84.25;97628.28;6184032;28;20711;-72
2022/02/16 00:46:14;;;;;;;10.10;8.17;;;;;;;3.77;84.51;97633.50;6189771;28;20325;-72
2022/02/16 00:49:17;;;;;;;10.60;9.03;;;;;;;3.80;84.25;97635.91;6158757;28;20226;-72
2022/02/16 00:52:24;;;;;;;10.27;8.13;;;;;;;3.86;84.07;97638.22;6215189;28;20284;-73
2022/02/16 00:55:26;;;;;;;9.57;8.10;;;;;;;3.86;83.92;97630.38;6230362;28;20230;-72
2022/02/16 00:58:29;;;;;;;10.97;8.63;;;;;;;3.84;83.88;97626.16;6228226;28;20240;-73
2022/02/16 01:01:32;;;;;;;10.10;8.23;;;;;;;3.83;84.33;97624.47;6215486;28;20266;-73
2022/02/16 01:04:34;;;;;;;10.70;8.23;;;;;;;3.80;84.10;97625.47;6203534;28;20243;-72
2022/02/16 01:07:37;;;;;;;10.50;8.50;;;;;;;3.86;83.44;97630.38;6216031;28;20251;-72
2022/02/16 01:10:43;;;;;;;9.77;8.17;;;;;;;3.85;83.33;97617.41;6228019;28;20234;-72
2022/02/16 01:13:49;;;;;;;9.40;7.83;;;;;;;3.85;83.39;97609.59;6228129;28;20605;-72
2022/02/16 01:16:52;;;;;;;9.93;7.43;;;;;;;3.78;83.39;97609.09;6226774;28;20224;-72
2022/02/16 01:20:12;;;;;;;7.77;6.57;;;;;;;3.72;84.00;97610.25;6231768;28;20231;-72
2022/02/16 01:23:15;;;;;;;11.10;9.13;;;;;;;3.72;83.84;97614.63;6211623;28;20234;-72
2022/02/16 01:26:21;;;;;;;10.93;9.30;;;;;;;3.77;83.58;97606.56;6226494;28;20241;-72
2022/02/16 01:29:36;;;;;;;11.17;9.30;;;;;;;3.83;83.48;97601.81;6229043;28;20743;-72
2022/02/16 01:32:59;;;;;;;11.90;9.57;;;;;;;3.85;83.31;97607.81;6204569;28;20262;-73
2022/02/16 01:36:10;;;;;;;10.80;9.03;;;;;;;3.87;82.68;97602.50;6221719;28;20670;-72
2022/02/16 01:39:12;;;;;;;12.40;9.50;;;;;;;3.84;82.72;97605.28;6222348;28;20254;-73
2022/02/16 01:42:19;;;;;;;10.87;9.30;;;;;;;3.82;82.99;97605.38;6226622;28;20357;-72
2022/02/16 01:45:29;;;;;;;11.83;9.77;;;;;;;3.86;82.86;97595.59;6212502;28;20266;-72
2022/02/16 01:48:31;;;;;;;11.27;9.77;;;;;;;3.82;82.53;97591.47;6209963;28;20716;-73
2022/02/16 01:51:33;;;;;;;12.67;9.50;;;;;;;3.80;82.93;97596.78;6227261;28;20230;-73
2022/02/16 01:54:36;;;;;;;11.47;9.67;;;;;;;3.86;82.40;97593.84;6226311;28;20229;-72
2022/02/16 01:57:43;;;;;;;11.80;8.67;;;;;;;3.90;82.42;97592.72;6211434;28;20608;-72
2022/02/16 02:00:48;;;;;;;9.90;8.57;;;;;;;3.88;82.32;97585.94;6226968;28;20234;-73
2022/02/16 02:03:53;;;;;;;10.10;8.60;;;;;;;3.84;82.38;97582.63;6226319;28;20228;-73
2022/02/16 02:06:55;;;;;;;9.17;7.90;;;;;;;3.83;82.53;97580.94;6226846;28;20228;-72
2022/02/16 02:09:57;;;;;;;11.20;9.30;;;;;;;3.78;81.93;97575.16;6223629;28;20315;-73
2022/02/16 02:13:00;;;;;;;12.63;9.47;;;;;;;3.76;82.68;97576.16;6206427;28;20232;-72
2022/02/16 02:16:22;;;;;;;11.63;10.10;;;;;;;3.67;83.00;97572.28;6214501;28;20524;-73
2022/02/16 02:19:25;;;;;;;11.13;9.30;;;;;;;3.60;83.06;97568.31;6227077;28;20231;-72
2022/02/16 02:22:31;;;;;;;11.70;9.67;;;;;;;3.64;83.63;97560.25;6226336;28;20234;-73
2022/02/16 02:25:51;;;;;;;11.90;9.47;;;;;;;3.68;83.15;97561.75;6209117;28;20731;-73
2022/02/16 02:28:54;;;;;;;12.40;10.60;;;;;;;3.71;82.91;97558.97;6218126;28;20326;-73
2022/02/16 02:31:57;;;;;;;12.50;10.33;;;;;;;3.78;82.15;97553.44;6225422;28;20231;-72
2022/02/16 02:35:00;;;;;;;12.40;10.00;;;;;;;3.74;81.94;97549.28;6215354;28;20236;-72
2022/02/16 02:38:02;;;;;;;10.83;9.40;;;;;;;3.73;82.47;97540.63;6213452;28;20236;-72
2022/02/16 02:41:05;;;;;;;11.23;8.97;;;;;;;3.69;82.39;97542.53;6207401;28;20232;-72
2022/02/16 02:44:10;;;;;;;10.70;8.93;;;;;;;3.80;81.51;97544.56;6190549;28;20246;-72
2022/02/16 02:47:15;;;;;;;10.03;8.27;;;;;;;3.84;80.92;97546.09;6187267;28;20229;-72
2022/02/16 02:50:18;;;;;;;10.00;8.00;;;;;;;3.82;80.88;97547.94;6208908;28;20231;-72
2022/02/16 02:53:21;;;;;;;9.07;7.90;;;;;;;3.87;80.88;97543.31;6225137;28;20289;-72
2022/02/16 02:56:24;;;;;;;9.40;7.67;;;;;;;3.94;80.56;97542.03;6227069;28;20230;-72
2022/02/16 02:59:26;;;;;;;10.40;8.80;;;;;;;3.97;80.51;97541.88;6226644;28;20239;-72
2022/02/16 03:02:29;;;;;;;8.53;7.57;;;;;;;3.96;80.51;97529.75;6208827;28;20238;-72
2022/02/16 03:05:31;;;;;;;9.07;7.70;;;;;;;3.93;80.55;97524.69;6226920;28;20288;-72
2022/02/16 03:08:34;;;;;;;10.13;8.07;;;;;;;3.95;80.13;97522.84;6224785;28;20238;-72
2022/02/16 03:11:36;;;;;;;8.47;7.53;;;;;;;3.95;79.58;97524.59;6220981;28;20367;-73
2022/02/16 03:14:39;;;;;;;7.67;6.80;;;;;;;3.95;79.82;97528.06;6225545;28;20251;-73
2022/02/16 03:17:42;;;;;;;8.47;6.50;;;;;;;3.94;79.59;97530.75;6225420;28;20326;-73
2022/02/16 03:20:44;;;;;;;8.80;6.60;;;;;;;3.92;79.58;97525.63;6224298;28;20229;-72
2022/02/16 03:23:46;;;;;;;6.97;6.20;;;;;;;3.89;79.97;97520.59;6224625;28;20234;-73
2022/02/16 03:26:49;;;;;;;9.60;6.90;;;;;;;3.82;80.40;97528.81;6222939;28;20375;-72
2022/02/16 03:29:58;;;;;;;6.93;6.23;;;;;;;3.72;81.08;97524.13;6206077;28;20327;-72
2022/02/16 03:33:07;;;;;;;8.20;6.90;;;;;;;3.71;80.92;97525.03;6184447;28;20237;-73
2022/02/16 03:36:12;;;;;;;7.10;5.80;;;;;;;3.76;81.00;97523.97;6214966;28;20235;-73
2022/02/16 03:39:16;;;;;;;6.23;5.63;;;;;;;3.75;80.79;97523.13;6215657;28;20594;-72
2022/02/16 03:42:20;;;;;;;6.83;5.03;;;;;;;3.72;81.30;97524.13;6228304;28;20225;-73
2022/02/16 03:45:22;;;;;;;7.30;5.30;;;;;;;3.69;81.16;97528.69;6230481;28;20313;-71
2022/02/16 03:48:27;;;;;;;8.67;6.00;;;;;;;3.74;80.66;97525.81;6222903;28;20238;-73
2022/02/16 03:51:29;;;;;;;6.63;6.03;;;;;;;3.79;80.38;97532.47;6226277;28;20269;-72
2022/02/16 03:54:32;;;;;;;6.73;5.87;;;;;;;3.77;80.48;97523.03;6207020;28;20242;-72
2022/02/16 03:57:36;;;;;;;5.70;5.20;;;;;;;3.73;80.59;97522.34;6209565;28;20223;-72
2022/02/16 04:00:39;;;;;;;6.43;5.20;;;;;;;3.76;79.94;97534.41;6239503;28;20254;-73
2022/02/16 04:03:42;;;;;;;6.30;5.40;;;;;;;3.83;79.10;97527.91;6225321;28;20717;-73
2022/02/16 04:06:44;;;;;;;5.97;4.57;;;;;;;3.90;78.05;97527.47;6224316;28;20244;-72
2022/02/16 04:09:46;;;;;;;4.37;3.97;;;;;;;3.97;77.68;97525.38;6221898;28;20242;-73
2022/02/16 04:12:48;;;;;;;4.37;3.80;;;;;;;3.98;78.41;97527.06;6200532;28;20651;-72
2022/02/16 04:15:51;;;;;;;6.27;4.90;;;;;;;3.92;78.11;97520.41;6200477;28;20224;-72
2022/02/16 04:18:53;;;;;;;5.30;4.17;;;;;;;3.93;78.47;97519.47;6199019;28;20394;-73
2022/02/16 04:21:55;;;;;;;4.00;3.50;;;;;;;3.83;78.29;97523.53;6199889;28;20271;-72
2022/02/16 04:24:59;;;;;;;4.37;3.73;;;;;;;3.74;78.87;97531.88;6199417;28;20390;-73
2022/02/16 04:28:05;;;;;;;4.53;3.60;;;;;;;3.76;78.26;97513.53;6202268;28;20625;-72
2022/02/16 04:31:07;;;;;;;4.30;3.77;;;;;;;3.75;77.82;97511.84;6216185;28;20746;-73
2022/02/16 04:34:09;;;;;;;4.60;3.83;;;;;;;3.69;78.30;97511.22;6213773;28;20604;-72
2022/02/16 04:37:11;;;;;;;4.10;3.50;;;;;;;3.55;78.55;97515.53;6216338;28;20552;-72
2022/02/16 04:40:14;;;;;;;4.80;3.63;;;;;;;3.42;79.49;97509.31;6207609;28;20226;-72
2022/02/16 04:43:16;;;;;;;3.47;2.63;;;;;;;3.45;78.33;97501.31;6209824;28;20285;-73
2022/02/16 04:46:19;;;;;;;3.50;2.77;;;;;;;3.42;78.62;97501.47;6228102;28;20243;-71
2022/02/16 04:49:21;;;;;;;3.43;2.77;;;;;;;3.31;78.81;97508.13;6212182;28;20742;-73
2022/02/16 04:52:23;;;;;;;2.87;2.27;;;;;;;3.15;79.21;97501.22;6227280;28;20722;-72
2022/02/16 04:55:27;;;;;;;3.33;2.37;;;;;;;2.99;79.84;97498.59;6227662;28;20376;-72
2022/02/16 04:58:34;;;;;;;2.57;2.23;;;;;;;2.84;79.88;97489.81;6227609;28;20238;-71
2022/02/16 05:01:37;;;;;;;3.47;3.03;;;;;;;2.68;80.24;97494.13;6229532;28;20586;-72
2022/02/16 05:04:40;;;;;;;2.90;2.50;;;;;;;2.57;80.87;97496.44;6227845;28;20230;-72
2022/02/16 05:07:43;;;;;;;4.47;2.30;;;;;;;2.48;80.64;97489.09;6226896;28;20248;-72
2022/02/16 05:10:45;;;;;;;2.23;2.03;;;;;;;2.37;81.01;97475.78;6227534;28;20230;-72
2022/02/16 05:13:56;;;;;;;5.07;2.30;;;;;;;2.26;81.50;97488.50;6227507;28;20237;-73
2022/02/16 05:17:00;;;;;;;2.93;2.33;;;;;;;2.13;81.62;97485.66;6211734;28;20227;-73
2022/02/16 05:20:04;;;;;;;3.10;2.00;;;;;;;2.04;82.02;97481.75;6227232;28;20232;-73
2022/02/16 05:23:08;;;;;;;2.97;2.30;;;;;;;1.99;81.92;97483.75;6228278;28;20600;-72
2022/02/16 05:26:10;;;;;;;2.10;1.90;;;;;;;1.90;82.39;97465.16;6227469;28;20704;-72
2022/02/16 05:29:12;;;;;;;2.30;2.00;;;;;;;1.85;82.39;97467.97;6215257;28;20244;-72
2022/02/16 05:32:22;;;;;;;2.40;2.20;;;;;;;1.76;82.47;97464.06;6211266;28;20233;-72
2022/02/16 05:35:24;;;;;;;1.70;1.60;;;;;;;1.72;82.47;97466.88;6214309;28;20224;-70
2022/02/16 05:38:27;;;;;;;1.90;1.70;;;;;;;1.72;82.98;97461.66;6229719;28;20227;-71
2022/02/16 05:41:30;;;;;;;3.30;2.20;;;;;;;1.66;82.99;97465.44;6212026;28;20716;-71
2022/02/16 05:44:36;;;;;;;2.77;1.90;;;;;;;1.59;83.01;97474.44;6227040;28;20241;-71
2022/02/16 05:47:38;;;;;;;2.87;2.10;;;;;;;1.50;83.48;97477.47;6227324;28;20236;-71
2022/02/16 05:50:41;;;;;;;2.00;1.80;;;;;;;1.41;83.28;97477.88;6227407;28;20237;-71
2022/02/16 05:53:43;;;;;;;2.43;1.80;;;;;;;1.31;83.64;97480.09;6226775;28;20233;-70
2022/02/16 05:56:46;;;;;;;2.07;1.57;;;;;;;1.22;83.37;97483.13;6226769;28;20256;-70
2022/02/16 05:59:51;;;;;;;1.83;1.53;;;;;;;1.10;83.59;97481.06;6226313;28;20236;-70
2022/02/16 06:02:54;;;;;;;1.80;1.50;;;;;;;0.94;83.05;97480.94;6227075;28;20254;-70
2022/02/16 06:05:56;;;;;;;1.60;1.43;;;;;;;0.78;83.70;97489.50;6226863;28;20236;-70
2022/02/16 06:08:59;;;;;;;1.90;1.20;;;;;;;0.63;83.88;97486.66;6225473;28;20715;-70
2022/02/16 06:12:01;;;;;;;1.40;1.20;;;;;;;0.49;83.31;97491.63;6226264;28;20220;-73
2022/02/16 06:15:05;;;;;;;1.47;1.20;;;;;;;0.36;83.58;97491.28;6218311;28;20234;-71
2022/02/16 06:18:10;;;;;;;2.53;1.33;;;;;;;0.21;83.42;97499.72;6212438;28;20753;-71
2022/02/16 06:21:12;;;;;;;2.80;1.30;;;;;;;0.11;83.92;97497.56;6234156;28;20232;-72
2022/02/16 06:24:20;;;;;;;2.33;1.53;;;;;;;-0.02;84.29;97497.25;6226666;28;20215;-71
2022/02/16 06:27:23;;;;;;;1.70;1.33;;;;;;;-0.11;83.97;97508.84;6225081;28;20231;-71
2022/02/16 06:30:25;;;;;;;1.53;1.27;;;;;;;-0.19;84.13;97500.50;6227281;28;20224;-70
2022/02/16 06:33:31;;;;;;;1.60;1.20;;;;;;;-0.25;84.50;97497.31;6225358;28;20234;-70
2022/02/16 06:36:33;;;;;;;1.23;1.13;;;;;;;-0.31;84.70;97500.19;6226803;28;20235;-70
2022/02/16 06:39:35;;;;;;;1.43;1.20;;;;;;;-0.38;84.64;97504.75;6225571;28;20243;-70
2022/02/16 06:42:39;;;;;;;1.13;1.03;;;;;;;-0.44;84.80;97500.66;6213892;28;20323;-70
2022/02/16 06:45:41;;;;;;;1.77;1.30;;;;;;;-0.47;84.84;97502.50;6216647;28;20242;-71
2022/02/16 06:48:44;;;;;;;2.00;1.00;;;;;;;-0.49;85.17;97512.94;6215562;28;20236;-71
2022/02/16 06:51:50;;;;;;;1.60;1.27;;;;;;;-0.50;85.29;97510.44;6225805;28;20250;-71
2022/02/16 06:54:57;;;;;;;1.50;1.40;;;;;;;-0.51;85.23;97512.19;6209635;28;20250;-71
2022/02/16 06:57:59;;;;;;;1.93;1.30;;;;;;;-0.51;85.62;97511.34;6224517;28;20231;-71
2022/02/16 07:01:03;;;;;;;1.47;1.03;;;;;;;-0.56;85.46;97511.50;6225855;28;20631;-71
2022/02/16 07:04:06;;;;;;;1.40;1.20;;;;;;;-0.58;85.29;97505.53;6225803;28;20290;-71
2022/02/16 07:07:08;;;;;;;2.60;1.30;;;;;;;-0.57;85.83;97502.03;6225551;28;20258;-71
2022/02/16 07:10:11;;;;;;;1.90;1.27;;;;;;;-0.59;85.64;97496.06;6234824;28;20228;-71
2022/02/16 07:13:13;;;;;;;2.50;1.40;;;;;;;-0.54;85.68;97501.06;6195135;28;20243;-71
2022/02/16 07:16:16;;;;;;;1.23;1.13;;;;;;;-0.50;85.92;97494.88;6221512;28;20224;-71
2022/02/16 07:19:24;;;;;;;3.07;1.17;;;;;;;-0.45;85.88;97498.13;6227135;28;20235;-71
2022/02/16 07:22:58;;;;;;;1.03;0.97;;;;;;;-0.41;86.01;97485.00;6224579;28;20512;-71
2022/02/16 07:26:03;;;;;;;1.77;1.10;;;;;;;-0.35;85.94;97491.66;6224626;28;20231;-71
2022/02/16 07:29:07;;;;;;;2.60;1.00;;;;;;;-0.31;86.26;97487.22;6219904;28;20322;-71
2022/02/16 07:32:13;;;;;;;1.03;0.90;;;;;;;-0.28;85.88;97495.69;6208993;28;20306;-71
2022/02/16 07:35:16;;;;;;;1.37;1.20;;;;;;;-0.24;85.92;97497.28;6213702;28;20236;-71
2022/02/16 07:38:19;;;;;;;1.37;1.00;;;;;;;-0.19;86.57;97495.31;6207763;28;20235;-70
2022/02/16 07:41:22;;;;;;;1.00;0.90;;;;;;;-0.16;86.06;97492.63;6224264;28;20514;-71
2022/02/16 07:44:38;;;;;;;1.83;0.73;;;;;;;-0.14;86.48;97498.59;6215924;28;20601;-71
2022/02/16 07:47:53;;;;;;;2.40;1.00;;;;;;;-0.08;86.73;97495.72;6215007;28;20263;-71
2022/02/16 07:50:56;;;;;;;1.33;0.93;;;;;;;-0.03;86.27;97495.56;6215767;28;20232;-71
2022/02/16 07:53:58;;;;;;;1.50;0.93;;;;;;;0.03;86.37;97508.25;6224011;28;20727;-71
2022/02/16 07:57:00;;;;;;;1.03;0.93;;;;;;;0.10;86.92;97504.50;6225023;28;20324;-72
2022/02/16 08:00:04;;;;;;;2.03;1.00;;;;;;;0.19;86.85;97492.91;6224410;28;20233;-71
2022/02/16 08:03:27;;;;;;;1.70;0.77;;;;;;;0.30;87.05;97496.72;6224554;28;20383;-72
2022/02/16 08:06:29;;;;;;;2.50;0.70;;;;;;;0.38;86.36;97483.44;6223689;28;20691;-71
2022/02/16 08:09:31;;;;;;;1.10;0.80;;;;;;;0.54;86.56;97471.47;6224424;28;20297;-71
2022/02/16 08:12:46;;;;;;;1.47;0.53;;;;;;;0.72;86.56;97470.66;6199386;28;20244;-71
2022/02/16 08:15:48;;;;;;;1.43;0.80;;;;;;;0.88;86.59;97473.44;6217934;28;20234;-72
2022/02/16 08:18:50;;;;;;;1.27;0.80;;;;;;;1.10;86.58;97465.47;6208884;28;20268;-71
2022/02/16 08:21:55;;;;;;;1.80;1.37;;;;;;;1.37;86.55;97466.81;6206757;28;20232;-71
2022/02/16 08:24:58;;;;;;;1.83;1.50;;;;;;;1.75;85.46;97451.97;6204526;28;20248;-70
2022/02/16 08:28:22;;;;;;;1.27;1.17;;;;;;;2.10;83.23;97457.19;6209846;28;20236;-71
2022/02/16 08:31:25;;;;;;;1.43;1.30;;;;;;;2.47;82.74;97451.81;6204581;28;20589;-71
2022/02/16 08:34:46;;;;;;;2.90;1.40;;;;;;;3.00;78.53;97444.66;6214141;28;20240;-72
2022/02/16 08:37:57;;;;;;;1.20;1.10;;;;;;;3.40;76.87;97438.13;6228910;28;20228;-71
2022/02/16 08:41:00;;;;;;;1.67;1.20;;;;;;;3.90;74.37;97432.66;6220194;28;20262;-71
2022/02/16 08:44:02;;;;;;;1.60;0.90;;;;;;;4.29;73.51;97430.31;6232025;28;20231;-72
2022/02/16 08:47:05;;;;;;;0.97;0.70;;;;;;;4.58;71.83;97426.00;6216780;28;20733;-73
2022/02/16 08:50:07;;;;;;;0.87;0.70;;;;;;;4.98;68.44;97421.78;6231878;28;20735;-72
2022/02/16 08:53:09;;;;;;;0.90;0.90;;;;;;;5.28;68.61;97420.81;6229033;28;20240;-71
2022/02/16 08:56:12;;;;;;;0.70;0.60;;;;;;;5.56;66.12;97412.84;6229409;28;20771;-71
2022/02/16 08:59:17;;;;;;;0.83;0.70;;;;;;;5.86;63.96;97403.00;6219294;28;20227;-71
2022/02/16 09:02:19;;;;;;;0.70;0.70;;;;;;;6.17;63.60;97399.22;6213198;28;20234;-73
2022/02/16 09:05:21;;;;;;;1.57;1.00;;;;;;;6.39;63.46;97387.31;6212726;28;20262;-72
2022/02/16 09:08:23;;;;;;;1.17;0.50;;;;;;;6.74;62.56;97390.09;6227658;28;20236;-72
2022/02/16 09:11:26;;;;;;;0.90;0.63;;;;;;;7.01;61.42;97386.38;6227057;28;20722;-72
2022/02/16 09:14:28;;;;;;;0.80;0.60;;;;;;;7.19;59.51;97378.97;6228820;28;20384;-72
2022/02/16 09:17:31;;;;;;;0.70;0.60;;;;;;;7.49;57.69;97365.44;6227929;28;20235;-72
2022/02/16 09:20:33;;;;;;;0.93;0.60;;;;;;;7.57;57.62;97368.34;6227650;28;20293;-70
2022/02/16 09:23:39;;;;;;;0.63;0.60;;;;;;;7.73;56.41;97368.06;6227546;28;20707;-70
2022/02/16 09:26:44;;;;;;;0.70;0.53;;;;;;;7.91;56.16;97356.16;6242598;28;20362;-72
2022/02/16 09:29:50;;;;;;;1.33;1.07;;;;;;;8.06;53.52;97352.41;6218492;28;20231;-72
2022/02/16 09:33:05;;;;;;;1.20;0.80;;;;;;;8.25;54.30;97346.59;6228038;28;20231;-71
2022/02/16 09:36:07;;;;;;;0.50;0.50;;;;;;;8.39;54.92;97341.13;6229413;28;20221;-72
2022/02/16 09:39:09;;;;;;;1.30;0.83;;;;;;;8.60;54.42;97329.91;6226596;28;20229;-71
2022/02/16 09:42:11;;;;;;;0.73;0.73;;;;;;;8.79;55.47;97327.50;6225924;28;20715;-71
2022/02/16 09:45:16;;;;;;;0.80;0.70;;;;;;;8.95;53.40;97328.00;6218601;28;20385;-72
2022/02/16 09:48:18;;;;;;;0.70;0.47;;;;;;;9.15;53.17;97319.34;6218094;28;20778;-70
2022/02/16 09:51:20;;;;;;;1.00;0.90;;;;;;;9.40;52.42;97312.91;6217443;28;20221;-70
2022/02/16 09:54:23;;;;;;;0.97;0.80;;;;;;;9.56;53.34;97308.06;6225960;28;20227;-71
2022/02/16 09:57:25;;;;;;;0.70;0.70;;;;;;;9.65;51.96;97303.84;6226683;28;20230;-71
2022/02/16 10:00:33;;;;;;;0.63;0.63;;;;;;;9.75;51.84;97294.22;6226611;28;20228;-71
2022/02/16 10:03:35;;;;;;;0.90;0.70;;;;;;;9.79;50.65;97295.63;6228102;28;20227;-71
2022/02/16 10:06:44;;;;;;;4.93;0.70;;;;;;;9.79;51.00;97287.72;6225941;28;20407;-70
2022/02/16 10:09:47;;;;;;;1.10;0.60;;;;;;;10.07;50.90;97294.16;6239816;28;20235;-71
2022/02/16 10:12:53;;;;;;;0.60;0.60;;;;;;;10.19;49.69;97284.38;6224618;28;20841;-71
2022/02/16 10:15:55;;;;;;;0.80;0.70;;;;;;;10.27;48.95;97276.69;6225949;28;20706;-71
2022/02/16 10:19:02;;;;;;;1.60;0.90;;;;;;;10.43;48.93;97278.81;6225143;28;20231;-71
2022/02/16 10:22:09;;;;;;;0.83;0.60;;;;;;;10.71;48.63;97275.47;6225809;28;20614;-71
2022/02/16 10:25:15;;;;;;;0.73;0.53;;;;;;;10.74;47.45;97275.19;6225215;28;20296;-71
2022/02/16 10:28:20;;;;;;;0.90;0.80;;;;;;;10.80;48.06;97258.81;6225962;28;20601;-71
2022/02/16 10:31:22;;;;;;;0.93;0.80;;;;;;;10.70;49.11;97261.44;6227108;28;20232;-71
2022/02/16 10:34:49;;;;;;;1.07;0.90;;;;;;;10.88;49.10;97240.50;6227253;28;20228;-70
2022/02/16 10:37:51;;;;;;;1.63;0.77;;;;;;;11.07;49.42;97234.44;6213044;28;20245;-70
2022/02/16 10:41:07;;;;;;;1.00;0.80;;;;;;;11.09;47.72;97229.81;6213995;28;20260;-71
2022/02/16 10:44:26;;;;;;;0.83;0.80;;;;;;;11.18;48.58;97222.91;6216759;28;20327;-71
2022/02/16 10:47:28;;;;;;;2.57;0.87;;;;;;;11.41;47.08;97214.56;6222498;28;20224;-71
2022/02/16 10:50:37;;;;;;;1.23;0.77;;;;;;;11.45;45.76;97204.56;6224726;28;20241;-71
2022/02/16 10:53:39;;;;;;;0.60;0.60;;;;;;;11.36;46.52;97197.47;6241059;28;20232;-71
2022/02/16 10:56:42;;;;;;;0.90;0.80;;;;;;;11.44;46.05;97193.16;6226284;28;20236;-71
2022/02/16 10:59:44;;;;;;;1.03;0.60;;;;;;;11.61;46.39;97196.88;6226405;28;20232;-71
2022/02/16 11:02:47;;;;;;;0.70;0.70;;;;;;;11.90;45.48;97182.78;6223897;28;20323;-71
2022/02/16 11:05:53;;;;;;;0.80;0.57;;;;;;;11.97;43.93;97174.16;6224964;28;20220;-71
2022/02/16 11:08:56;;;;;;;0.80;0.60;;;;;;;11.95;43.41;97167.34;6225335;28;20231;-71
2022/02/16 11:12:02;;;;;;;0.67;0.67;;;;;;;11.89;44.04;97171.38;6205191;28;20264;-71
2022/02/16 11:15:04;;;;;;;0.77;0.77;;;;;;;12.08;42.36;97157.25;6213577;28;20290;-71
2022/02/16 11:18:15;;;;;;;0.80;0.80;;;;;;;12.23;43.49;97147.88;6221174;28;20280;-71
2022/02/16 11:21:19;;;;;;;1.13;0.80;;;;;;;12.51;43.02;97146.06;6225861;28;20222;-71
2022/02/16 11:24:51;;;;;;;0.60;0.60;;;;;;;12.63;40.28;97136.09;6224181;28;20732;-71
2022/02/16 11:27:53;;;;;;;0.43;0.40;;;;;;;12.78;40.99;97130.13;6192937;28;20243;-71
2022/02/16 11:30:58;;;;;;;0.77;0.60;;;;;;;12.87;41.85;97121.31;6222199;28;20234;-71
2022/02/16 11:34:11;;;;;;;0.70;0.50;;;;;;;12.70;39.48;97116.81;6220429;28;20236;-71
2022/02/16 11:37:33;;;;;;;1.17;0.60;;;;;;;12.59;39.09;97124.97;6188416;28;20706;-71
2022/02/16 11:40:45;;;;;;;0.83;0.60;;;;;;;12.45;40.06;97109.59;6227204;28;20234;-71
2022/02/16 11:44:00;;;;;;;0.30;0.30;;;;;;;12.59;40.85;97095.84;6221469;28;20231;-71
2022/02/16 11:47:03;;;;;;;0.80;0.43;;;;;;;12.77;39.78;97091.41;6206089;28;20304;-71
2022/02/16 11:50:14;;;;;;;0.40;0.40;;;;;;;12.86;39.84;97093.16;6209456;28;20242;-71
2022/02/16 11:53:28;;;;;;;0.53;0.40;;;;;;;13.06;37.95;97093.00;6227311;28;20239;-70
2022/02/16 11:56:35;;;;;;;0.60;0.40;;;;;;;13.07;38.49;97090.19;6210695;28;20255;-71
2022/02/16 11:59:54;;;;;;;0.50;0.50;;;;;;;13.21;36.28;97092.31;6227533;28;20241;-71
2022/02/16 12:06:08;;;;;;;0.30;0.30;;;;;;;13.41;36.10;97077.03;6220280;28;20763;-71
2022/02/16 12:09:10;;;;;;;0.47;0.40;;;;;;;13.36;36.33;97070.56;6230791;28;20246;-71
2022/02/16 12:12:13;;;;;;;0.40;0.40;;;;;;;13.50;34.47;97068.16;6228409;28;20718;-71
2022/02/16 12:15:19;;;;;;;0.57;0.40;;;;;;;13.74;35.39;97064.00;6212359;28;20203;-71
2022/02/16 12:18:31;;;;;;;0.87;0.50;;;;;;;13.92;35.43;97054.97;6229287;28;20807;-71
2022/02/16 12:21:37;;;;;;;0.53;0.40;;;;;;;14.32;35.93;97045.47;6229745;28;20228;-71
2022/02/16 12:24:39;;;;;;;0.50;0.50;;;;;;;14.16;34.52;97048.94;6229549;28;20318;-72
2022/02/16 12:27:42;;;;;;;0.37;0.37;;;;;;;14.40;34.22;97046.34;6229618;28;20242;-72
2022/02/16 12:30:43;;;;;;;0.63;0.57;;;;;;;14.22;34.06;97042.13;6225224;28;20278;-71
2022/02/16 12:34:11;;;;;;;1.40;0.40;;;;;;;14.55;35.25;97038.59;6233638;28;20231;-72
2022/02/16 12:37:17;;;;;;;0.20;0.20;;;;;;;14.49;33.54;97039.22;6220465;28;20236;-72
2022/02/16 12:40:23;;;;;;;0.30;0.30;;;;;;;14.51;34.68;97025.81;6218535;28;20261;-72
2022/02/16 12:43:25;;;;;;;0.33;0.33;;;;;;;14.40;34.72;97024.28;6204535;28;20228;-72
2022/02/16 12:46:32;;;;;;;0.37;0.30;;;;;;;14.27;32.57;97018.59;6213782;28;20246;-71
2022/02/16 12:49:39;;;;;;;0.50;0.40;;;;;;;14.23;33.95;96999.50;6228490;28;20273;-71
2022/02/16 12:52:41;;;;;;;0.60;0.50;;;;;;;14.52;33.58;96993.78;6229219;28;20651;-71
2022/02/16 12:55:46;;;;;;;0.50;0.50;;;;;;;14.45;33.77;96994.59;6227038;28;20228;-71
2022/02/16 12:58:48;;;;;;;0.57;0.40;;;;;;;14.35;34.39;96982.28;6227231;28;20235;-71
2022/02/16 13:01:54;;;;;;;0.57;0.40;;;;;;;14.47;34.11;96974.03;6229760;28;20295;-71
2022/02/16 13:05:06;;;;;;;0.30;0.30;;;;;;;14.51;35.03;96984.16;6227314;28;20625;-72
2022/02/16 13:08:10;;;;;;;0.97;0.50;;;;;;;14.48;34.15;96973.84;6227733;28;20228;-72
2022/02/16 13:11:12;;;;;;;0.43;0.40;;;;;;;14.40;34.38;96966.72;6214264;28;20229;-71
2022/02/16 13:14:14;;;;;;;0.40;0.40;;;;;;;14.28;34.69;96954.72;6213998;28;20654;-71
2022/02/16 13:17:16;;;;;;;0.60;0.40;;;;;;;14.42;34.74;96955.09;6213921;28;20220;-71
2022/02/16 13:20:28;;;;;;;0.43;0.33;;;;;;;14.52;34.96;96953.13;6228417;28;20696;-71
2022/02/16 13:23:35;;;;;;;0.87;0.50;;;;;;;14.56;34.45;96938.53;6229996;28;20259;-71
2022/02/16 13:26:42;;;;;;;1.03;0.40;;;;;;;14.51;34.62;96930.22;6232706;28;20243;-71
2022/02/16 13:29:44;;;;;;;0.50;0.50;;;;;;;14.46;36.15;96933.38;6210241;28;20243;-71
2022/02/16 14:36:16;;;;;;;0.50;0.40;;;;;;;12.53;37.75;96807.94;6224528;28;20238;-71
2022/02/16 14:39:19;;;;;;;0.43;0.40;;;;;;;12.38;37.83;96812.13;6231867;28;20202;-71
2022/02/16 14:42:21;;;;;;;0.50;0.47;;;;;;;12.40;38.44;96808.38;6205224;28;20611;-71
2022/02/16 14:45:23;;;;;;;0.63;0.40;;;;;;;12.43;38.43;96810.72;6206095;28;20310;-71
2022/02/16 14:48:26;;;;;;;0.60;0.50;;;;;;;12.35;39.24;96812.47;6203899;28;20242;-71
2022/02/16 14:51:29;;;;;;;0.57;0.40;;;;;;;12.32;39.47;96804.84;6226072;28;20234;-71
2022/02/16 14:54:35;;;;;;;0.60;0.60;;;;;;;12.26;39.23;96795.72;6226508;28;20246;-71
2022/02/16 14:57:38;;;;;;;2.37;0.67;;;;;;;12.33;39.75;96795.91;6225958;28;20893;-71
2022/02/16 15:00:40;;;;;;;0.93;0.50;;;;;;;12.36;39.93;96793.81;6227776;28;20253;-71
2022/02/16 15:03:43;;;;;;;0.67;0.50;;;;;;;12.29;38.19;96790.09;6227321;28;20820;-71
2022/02/16 15:06:46;;;;;;;0.40;0.30;;;;;;;12.18;38.94;96783.25;6225980;28;20303;-71
2022/02/16 15:09:48;;;;;;;0.60;0.40;;;;;;;11.98;39.87;96786.25;6207293;28;20237;-70
2022/02/16 15:12:50;;;;;;;0.40;0.40;;;;;;;11.63;40.86;96793.19;6216113;28;20607;-71
2022/02/16 15:15:53;;;;;;;0.97;0.77;;;;;;;11.42;40.76;96795.31;6221281;28;20234;-72
2022/02/16 15:19:08;;;;;;;0.37;0.37;;;;;;;11.23;40.73;96795.44;6225124;28;20306;-71
2022/02/16 15:22:10;;;;;;;0.73;0.50;;;;;;;10.98;41.57;96802.28;6225818;28;20237;-70
2022/02/16 15:25:12;;;;;;;0.40;0.40;;;;;;;10.75;42.72;96793.91;6226092;28;20328;-71
2022/02/16 15:28:29;;;;;;;0.20;0.20;;;;;;;10.52;43.44;96785.50;6224555;28;20601;-71
2022/02/16 15:31:32;;;;;;;1.00;0.50;;;;;;;10.35;43.86;96773.09;6225153;28;20605;-71
2022/02/16 15:34:34;;;;;;;0.43;0.43;;;;;;;10.19;44.36;96772.84;6224167;28;20666;-71
2022/02/16 15:37:36;;;;;;;0.50;0.37;;;;;;;10.09;45.18;96764.91;6224833;28;20609;-71
2022/02/16 15:40:38;;;;;;;0.27;0.27;;;;;;;9.94;45.94;96763.72;6216830;28;20723;-71